Time;durP1;ratioP1;P1;durP2;ratioP2;P2;SDS_P1;SDS_P2;PMS_P1;PMS_P2;Temp;Humidity;BMP_temperature;BMP_pressure;BME280_temperature;BME280_humidity;BME280_pressure;Samples;Min_cycle;Max_cycle;Signal;HPM_P1;HPM_P2
2024/02/14 00:00:13;;;;;;;9.50;4.00;;;;;;;;;;2055336;28;20105;-52
2024/02/14 00:01:14;;;;;;;9.57;4.35;;;;;;;;;;2049900;28;20027;-53
2024/02/14 00:02:15;;;;;;;7.57;4.10;;;;;;;;;;2055768;28;20019;-52
2024/02/14 00:03:17;;;;;;;10.00;4.95;;;;;;;;;;2055708;28;20501;-52
2024/02/14 00:04:18;;;;;;;7.18;4.57;;;;;;;;;;2054040;28;20394;-52
2024/02/14 00:05:20;;;;;;;8.68;4.60;;;;;;;;;;2058001;28;20026;-52
2024/02/14 00:06:21;;;;;;;8.13;4.70;;;;;;;;;;2055578;28;20486;-50
2024/02/14 00:07:23;;;;;;;9.65;4.25;;;;;;;;;;2056262;28;20312;-51
2024/02/14 00:08:24;;;;;;;7.50;4.80;;;;;;;;;;2055931;28;20126;-51
2024/02/14 00:09:25;;;;;;;8.10;4.63;;;;;;;;;;2056069;28;20382;-53
2024/02/14 00:10:26;;;;;;;8.38;4.60;;;;;;;;;;2056391;28;20109;-52
2024/02/14 00:11:28;;;;;;;8.55;4.70;;;;;;;;;;2056144;28;20072;-51
2024/02/14 00:12:29;;;;;;;7.13;4.45;;;;;;;;;;2056222;28;20386;-55
2024/02/14 00:13:33;;;;;;;12.13;5.00;;;;;;;;;;2048313;29;20110;-53
2024/02/14 00:14:35;;;;;;;9.82;4.50;;;;;;;;;;2060331;28;20018;-52
2024/02/14 00:15:36;;;;;;;8.50;4.22;;;;;;;;;;2063619;28;20023;-52
2024/02/14 00:16:38;;;;;;;7.75;4.90;;;;;;;;;;2056174;28;20548;-54
2024/02/14 00:17:40;;;;;;;10.05;5.15;;;;;;;;;;2055492;28;20065;-52
2024/02/14 00:18:41;;;;;;;10.38;4.88;;;;;;;;;;2055686;28;20201;-52
2024/02/14 00:19:42;;;;;;;8.35;4.63;;;;;;;;;;2055535;28;20102;-51
2024/02/14 00:20:43;;;;;;;9.38;5.30;;;;;;;;;;2049908;28;20054;-51
2024/02/14 00:21:45;;;;;;;9.18;5.05;;;;;;;;;;2055539;28;20019;-53
2024/02/14 00:22:48;;;;;;;7.10;4.50;;;;;;;;;;2050662;28;20117;-52
2024/02/14 00:23:49;;;;;;;8.57;4.35;;;;;;;;;;2055269;28;20182;-51
2024/02/14 00:24:50;;;;;;;8.23;4.63;;;;;;;;;;2056245;28;20061;-53
2024/02/14 00:25:51;;;;;;;9.02;4.30;;;;;;;;;;2056050;28;20525;-49
2024/02/14 00:26:53;;;;;;;7.57;4.60;;;;;;;;;;2055936;28;20026;-52
2024/02/14 00:27:54;;;;;;;10.88;4.57;;;;;;;;;;2055243;28;20141;-52
2024/02/14 00:28:55;;;;;;;9.77;4.10;;;;;;;;;;2055422;28;20061;-54
2024/02/14 00:29:57;;;;;;;8.90;4.20;;;;;;;;;;2055493;28;20077;-51
2024/02/14 00:30:58;;;;;;;8.02;4.70;;;;;;;;;;2054512;28;20019;-53
2024/02/14 00:32:00;;;;;;;8.25;4.40;;;;;;;;;;2056073;28;20055;-53
2024/02/14 00:33:01;;;;;;;7.45;4.50;;;;;;;;;;2055524;28;20520;-54
2024/02/14 00:34:02;;;;;;;7.63;4.53;;;;;;;;;;2056156;28;20596;-54
2024/02/14 00:35:04;;;;;;;7.43;4.03;;;;;;;;;;2054676;28;20046;-53
2024/02/14 00:36:05;;;;;;;8.07;4.15;;;;;;;;;;2048526;29;20063;-54
2024/02/14 00:37:07;;;;;;;8.52;4.68;;;;;;;;;;2054055;28;20022;-53
2024/02/14 00:38:08;;;;;;;8.10;5.15;;;;;;;;;;2056195;28;20015;-53
2024/02/14 00:39:09;;;;;;;9.15;5.20;;;;;;;;;;2056261;28;20624;-53
2024/02/14 00:40:11;;;;;;;11.20;5.43;;;;;;;;;;2056070;28;20030;-54
2024/02/14 00:41:12;;;;;;;11.68;4.65;;;;;;;;;;2057640;28;20086;-51
2024/02/14 00:42:14;;;;;;;10.43;4.78;;;;;;;;;;2057134;28;20049;-53
2024/02/14 00:43:15;;;;;;;7.97;4.25;;;;;;;;;;2057693;28;20023;-53
2024/02/14 00:44:16;;;;;;;8.88;4.30;;;;;;;;;;2057668;28;20367;-53
2024/02/14 00:45:18;;;;;;;8.45;3.88;;;;;;;;;;2057718;28;20055;-53
2024/02/14 00:46:19;;;;;;;7.82;3.25;;;;;;;;;;2056969;28;20031;-54
2024/02/14 00:47:20;;;;;;;8.38;4.15;;;;;;;;;;2056962;28;20050;-54
2024/02/14 00:48:21;;;;;;;8.13;4.45;;;;;;;;;;2057312;28;20505;-55
2024/02/14 00:49:22;;;;;;;6.80;3.78;;;;;;;;;;2056854;28;20478;-54
2024/02/14 00:50:25;;;;;;;7.55;4.00;;;;;;;;;;2053063;28;20023;-52
2024/02/14 00:51:26;;;;;;;6.03;3.28;;;;;;;;;;2055741;28;20035;-53
2024/02/14 00:52:27;;;;;;;8.95;3.65;;;;;;;;;;2049548;28;20387;-53
2024/02/14 00:53:28;;;;;;;7.57;3.33;;;;;;;;;;2064229;28;20470;-54
2024/02/14 00:54:30;;;;;;;7.45;3.80;;;;;;;;;;2064637;28;20125;-53
2024/02/14 00:55:32;;;;;;;8.50;3.90;;;;;;;;;;2057711;28;20015;-53
2024/02/14 00:56:33;;;;;;;7.53;3.60;;;;;;;;;;2055567;28;20042;-53
2024/02/14 00:57:35;;;;;;;8.18;3.88;;;;;;;;;;2051176;28;20011;-52
2024/02/14 00:58:36;;;;;;;7.90;4.20;;;;;;;;;;2057422;28;20011;-51
2024/02/14 00:59:37;;;;;;;6.55;3.40;;;;;;;;;;2057496;28;20028;-53
2024/02/14 01:00:38;;;;;;;6.18;3.88;;;;;;;;;;2057329;28;20425;-53
2024/02/14 01:01:40;;;;;;;9.18;4.50;;;;;;;;;;2053730;28;20480;-51
2024/02/14 01:02:41;;;;;;;7.72;4.03;;;;;;;;;;2057508;28;20357;-55
2024/02/14 01:03:42;;;;;;;6.00;3.53;;;;;;;;;;2057619;28;20719;-53
2024/02/14 01:04:44;;;;;;;6.70;3.80;;;;;;;;;;2057372;28;20031;-55
2024/02/14 01:05:45;;;;;;;7.80;3.55;;;;;;;;;;2057419;28;20038;-53
2024/02/14 01:06:48;;;;;;;7.53;4.13;;;;;;;;;;2056242;28;20636;-53
2024/02/14 01:07:49;;;;;;;7.80;3.67;;;;;;;;;;2050419;28;20015;-54
2024/02/14 01:08:51;;;;;;;8.27;4.00;;;;;;;;;;2056855;28;20023;-52
2024/02/14 01:09:52;;;;;;;9.23;4.35;;;;;;;;;;2056709;28;20022;-54
2024/02/14 01:10:53;;;;;;;7.18;4.03;;;;;;;;;;2057494;28;20018;-52
2024/02/14 01:11:54;;;;;;;10.52;4.22;;;;;;;;;;2056941;28;20023;-51
2024/02/14 01:12:56;;;;;;;8.32;3.90;;;;;;;;;;2055412;28;20496;-55
2024/02/14 01:13:57;;;;;;;7.63;4.05;;;;;;;;;;2057050;28;20027;-55
2024/02/14 01:14:59;;;;;;;6.63;3.65;;;;;;;;;;2056405;28;20401;-54
2024/02/14 01:16:00;;;;;;;7.55;3.35;;;;;;;;;;2056734;28;20030;-54
2024/02/14 01:17:01;;;;;;;7.07;3.72;;;;;;;;;;2056983;28;20352;-54
2024/02/14 01:18:03;;;;;;;9.25;3.90;;;;;;;;;;2057544;28;20022;-54
2024/02/14 01:19:04;;;;;;;8.05;4.13;;;;;;;;;;2057117;28;20064;-52
2024/02/14 01:20:08;;;;;;;5.80;3.35;;;;;;;;;;2057262;28;20023;-53
2024/02/14 01:21:10;;;;;;;7.70;3.55;;;;;;;;;;2056393;28;20023;-54
2024/02/14 01:22:11;;;;;;;5.88;3.47;;;;;;;;;;2057453;28;20058;-53
2024/02/14 01:23:12;;;;;;;7.07;3.63;;;;;;;;;;2056768;28;20444;-52
2024/02/14 01:24:14;;;;;;;6.70;3.40;;;;;;;;;;2048689;28;20518;-52
2024/02/14 01:25:15;;;;;;;8.45;4.07;;;;;;;;;;2056821;28;20450;-52
2024/02/14 01:26:16;;;;;;;8.45;3.80;;;;;;;;;;2057048;28;20095;-52
2024/02/14 01:27:18;;;;;;;5.90;3.20;;;;;;;;;;2057329;28;20427;-51
2024/02/14 01:28:19;;;;;;;6.53;3.72;;;;;;;;;;2056954;28;20578;-51
2024/02/14 01:29:20;;;;;;;6.13;2.97;;;;;;;;;;2056286;28;20045;-52
2024/02/14 01:30:22;;;;;;;4.90;2.80;;;;;;;;;;2056390;28;20027;-52
2024/02/14 01:31:23;;;;;;;6.97;3.42;;;;;;;;;;2055329;28;20474;-54
2024/02/14 01:32:26;;;;;;;5.10;3.03;;;;;;;;;;2060911;28;20030;-54
2024/02/14 01:33:28;;;;;;;7.22;3.60;;;;;;;;;;2059241;28;20018;-54
2024/02/14 01:34:29;;;;;;;8.52;3.72;;;;;;;;;;2058847;28;20013;-55
2024/02/14 01:35:31;;;;;;;6.30;3.65;;;;;;;;;;2057359;28;20019;-53
2024/02/14 01:36:32;;;;;;;6.32;3.20;;;;;;;;;;2057235;28;20485;-53
2024/02/14 01:37:33;;;;;;;5.72;3.25;;;;;;;;;;2056453;28;20022;-54
2024/02/14 01:38:35;;;;;;;7.18;3.75;;;;;;;;;;2055887;28;20025;-55
2024/02/14 01:39:36;;;;;;;8.15;3.78;;;;;;;;;;2053145;28;20022;-55
2024/02/14 01:40:37;;;;;;;7.93;3.63;;;;;;;;;;2053816;28;20070;-54
2024/02/14 01:41:39;;;;;;;5.43;3.60;;;;;;;;;;2057205;28;20030;-55
2024/02/14 01:42:40;;;;;;;5.68;2.92;;;;;;;;;;2057025;28;20022;-54
2024/02/14 01:43:41;;;;;;;6.20;3.55;;;;;;;;;;2057194;28;20343;-54
2024/02/14 01:44:43;;;;;;;5.40;3.08;;;;;;;;;;2057202;28;20026;-54
2024/02/14 01:45:44;;;;;;;7.80;3.88;;;;;;;;;;2057157;28;20140;-53
2024/02/14 01:46:45;;;;;;;5.53;3.38;;;;;;;;;;2056737;28;20332;-54
2024/02/14 01:47:47;;;;;;;8.25;3.53;;;;;;;;;;2056995;28;20050;-54
2024/02/14 01:48:49;;;;;;;7.30;3.65;;;;;;;;;;2056747;28;20018;-53
2024/02/14 01:49:50;;;;;;;6.13;3.75;;;;;;;;;;2056838;28;20562;-54
2024/02/14 01:50:52;;;;;;;7.68;3.20;;;;;;;;;;2057103;28;20029;-53
2024/02/14 01:51:53;;;;;;;8.15;3.88;;;;;;;;;;2056180;28;20112;-54
2024/02/14 01:52:55;;;;;;;7.90;3.55;;;;;;;;;;2056945;28;20553;-53
2024/02/14 01:53:57;;;;;;;8.80;3.65;;;;;;;;;;2056916;28;20089;-53
2024/02/14 01:54:59;;;;;;;7.43;3.65;;;;;;;;;;2057014;28;20034;-53
2024/02/14 01:56:00;;;;;;;5.00;3.20;;;;;;;;;;2057241;28;20574;-52
2024/02/14 01:57:02;;;;;;;7.47;4.00;;;;;;;;;;2056839;28;20022;-54
2024/02/14 01:58:04;;;;;;;6.22;3.38;;;;;;;;;;2057064;28;20552;-54
2024/02/14 01:59:05;;;;;;;6.57;3.60;;;;;;;;;;2056590;28;20033;-54
2024/02/14 02:00:15;;;;;;;7.88;3.60;;;;;;;;;;2056285;28;20023;-56
2024/02/14 02:01:17;;;;;;;6.03;3.70;;;;;;;;;;2050926;28;20035;-49
2024/02/14 02:02:19;;;;;;;6.18;2.80;;;;;;;;;;2049230;28;20019;-53
2024/02/14 02:03:22;;;;;;;5.40;3.33;;;;;;;;;;2054481;28;20339;-52
2024/02/14 02:04:24;;;;;;;6.72;3.67;;;;;;;;;;2063570;28;20050;-54
2024/02/14 02:05:25;;;;;;;7.25;3.35;;;;;;;;;;2054745;28;20076;-51
2024/02/14 02:06:27;;;;;;;4.38;3.05;;;;;;;;;;2056616;28;20031;-50
2024/02/14 02:07:29;;;;;;;5.95;3.17;;;;;;;;;;2056380;28;20023;-49
2024/02/14 02:08:30;;;;;;;5.28;3.38;;;;;;;;;;2056219;28;20540;-49
2024/02/14 02:09:32;;;;;;;6.78;3.45;;;;;;;;;;2057006;28;20027;-50
2024/02/14 02:10:34;;;;;;;5.57;3.60;;;;;;;;;;2057035;28;20462;-54
2024/02/14 02:11:56;;;;;;;6.85;3.55;;;;;;;;;;2056930;28;20022;-53
2024/02/14 02:13:00;;;;;;;5.63;3.28;;;;;;;;;;2056951;28;20111;-55
2024/02/14 02:14:03;;;;;;;5.05;3.47;;;;;;;;;;2057051;28;20022;-53
2024/02/14 02:15:06;;;;;;;4.25;2.67;;;;;;;;;;2056887;28;20458;-51
2024/02/14 02:16:07;;;;;;;4.63;3.22;;;;;;;;;;2055688;28;20494;-49
2024/02/14 02:17:11;;;;;;;5.57;2.95;;;;;;;;;;2056837;28;20019;-49
2024/02/14 02:18:12;;;;;;;5.65;3.45;;;;;;;;;;2055995;28;20088;-50
2024/02/14 02:19:15;;;;;;;4.60;3.00;;;;;;;;;;2064345;28;20011;-50
2024/02/14 02:20:17;;;;;;;3.22;2.47;;;;;;;;;;2065484;28;20137;-49
2024/02/14 02:21:23;;;;;;;4.05;3.13;;;;;;;;;;2055658;28;20109;-50
2024/02/14 02:22:24;;;;;;;4.75;2.88;;;;;;;;;;2063206;28;20042;-50
2024/02/14 02:23:26;;;;;;;4.80;3.00;;;;;;;;;;2056956;28;20093;-50
2024/02/14 02:24:27;;;;;;;4.25;3.03;;;;;;;;;;2056339;28;20029;-49
2024/02/14 02:25:28;;;;;;;4.35;2.78;;;;;;;;;;2055999;28;20023;-50
2024/02/14 02:26:29;;;;;;;5.75;3.38;;;;;;;;;;2048215;29;20051;-51
2024/02/14 02:27:31;;;;;;;6.50;3.15;;;;;;;;;;2052423;28;20066;-51
2024/02/14 02:28:32;;;;;;;4.28;2.70;;;;;;;;;;2056984;28;20019;-52
2024/02/14 02:29:33;;;;;;;4.07;2.63;;;;;;;;;;2055785;28;20019;-51
2024/02/14 02:30:35;;;;;;;4.95;2.85;;;;;;;;;;2056064;28;20101;-51
2024/02/14 02:31:37;;;;;;;4.35;2.83;;;;;;;;;;2064324;28;20026;-50
2024/02/14 02:32:39;;;;;;;5.03;2.90;;;;;;;;;;2056540;28;20062;-51
2024/02/14 02:33:40;;;;;;;3.90;2.78;;;;;;;;;;2056857;28;20366;-50
2024/02/14 02:34:41;;;;;;;3.72;2.60;;;;;;;;;;2052893;28;20011;-50
2024/02/14 02:35:45;;;;;;;5.47;2.75;;;;;;;;;;2048850;28;20019;-51
2024/02/14 02:36:46;;;;;;;4.47;2.83;;;;;;;;;;2055714;28;20497;-50
2024/02/14 02:37:50;;;;;;;3.50;2.47;;;;;;;;;;2051059;28;20027;-50
2024/02/14 02:38:52;;;;;;;4.68;2.90;;;;;;;;;;2056755;28;20075;-51
2024/02/14 02:39:55;;;;;;;4.85;2.85;;;;;;;;;;2056673;28;20386;-50
2024/02/14 02:40:56;;;;;;;4.38;2.92;;;;;;;;;;2056369;28;20011;-50
2024/02/14 02:41:57;;;;;;;5.22;3.05;;;;;;;;;;2056438;28;20177;-50
2024/02/14 02:42:58;;;;;;;4.65;2.85;;;;;;;;;;2056704;28;20038;-51
2024/02/14 02:44:01;;;;;;;4.15;3.15;;;;;;;;;;2055236;28;20018;-49
2024/02/14 02:45:05;;;;;;;4.70;3.20;;;;;;;;;;2056073;28;20110;-51
2024/02/14 02:46:08;;;;;;;5.03;2.97;;;;;;;;;;2056778;28;20019;-51
2024/02/14 02:47:10;;;;;;;3.97;2.58;;;;;;;;;;2056687;28;20101;-51
2024/02/14 02:48:12;;;;;;;4.05;2.70;;;;;;;;;;2056591;28;20054;-51
2024/02/14 02:49:13;;;;;;;4.22;2.88;;;;;;;;;;2056709;28;20114;-51
2024/02/14 02:50:15;;;;;;;4.97;2.67;;;;;;;;;;2056611;28;20015;-50
2024/02/14 02:51:19;;;;;;;4.75;2.83;;;;;;;;;;2056686;28;20358;-51
2024/02/14 02:52:21;;;;;;;5.80;3.08;;;;;;;;;;2056442;28;20011;-51
2024/02/14 02:53:23;;;;;;;4.22;2.80;;;;;;;;;;2056877;28;20030;-51
2024/02/14 02:54:25;;;;;;;5.13;2.90;;;;;;;;;;2056539;28;20524;-51
2024/02/14 02:55:26;;;;;;;4.93;2.50;;;;;;;;;;2056468;28;20076;-50
2024/02/14 02:56:27;;;;;;;4.25;2.70;;;;;;;;;;2056354;28;20023;-50
2024/02/14 02:57:31;;;;;;;3.55;2.60;;;;;;;;;;2052174;28;20565;-50
2024/02/14 02:58:33;;;;;;;5.22;2.90;;;;;;;;;;2056671;28;20023;-51
2024/02/14 02:59:35;;;;;;;4.50;3.40;;;;;;;;;;2056527;28;20030;-50
2024/02/14 03:00:36;;;;;;;5.60;3.03;;;;;;;;;;2056360;28;20130;-51
2024/02/14 03:01:38;;;;;;;6.70;3.33;;;;;;;;;;2056530;28;20015;-51
2024/02/14 03:02:42;;;;;;;6.30;3.22;;;;;;;;;;2056516;28;20057;-51
2024/02/14 03:03:44;;;;;;;6.25;3.38;;;;;;;;;;2056579;28;20696;-53
2024/02/14 03:04:45;;;;;;;4.57;3.03;;;;;;;;;;2056525;28;20030;-54
2024/02/14 03:05:46;;;;;;;5.68;3.50;;;;;;;;;;2056279;28;20097;-53
2024/02/14 03:06:48;;;;;;;6.45;3.28;;;;;;;;;;2051913;28;20075;-54
2024/02/14 03:07:50;;;;;;;5.07;3.45;;;;;;;;;;2055266;28;20065;-53
2024/02/14 03:08:53;;;;;;;5.65;3.00;;;;;;;;;;2056540;28;20085;-54
2024/02/14 03:09:55;;;;;;;4.50;3.38;;;;;;;;;;2056203;28;20417;-52
2024/02/14 03:10:59;;;;;;;3.83;3.05;;;;;;;;;;2056332;28;20061;-53
2024/02/14 03:12:00;;;;;;;5.20;3.65;;;;;;;;;;2056230;28;20517;-56
2024/02/14 03:13:01;;;;;;;4.65;3.20;;;;;;;;;;2056325;28;20025;-53
2024/02/14 03:14:02;;;;;;;5.90;3.53;;;;;;;;;;2056454;28;20462;-54
2024/02/14 03:15:05;;;;;;;5.07;3.15;;;;;;;;;;2053462;28;20498;-52
2024/02/14 03:16:06;;;;;;;6.13;4.15;;;;;;;;;;2056152;28;20023;-54
2024/02/14 03:17:09;;;;;;;5.65;3.72;;;;;;;;;;2055507;28;20058;-53
2024/02/14 03:18:11;;;;;;;4.47;3.35;;;;;;;;;;2047972;28;20502;-53
2024/02/14 03:19:12;;;;;;;7.63;4.15;;;;;;;;;;2055642;28;20394;-53
2024/02/14 03:20:13;;;;;;;5.88;3.47;;;;;;;;;;2051162;28;20064;-53
2024/02/14 03:21:15;;;;;;;5.80;4.00;;;;;;;;;;2055620;28;20061;-53
2024/02/14 03:22:18;;;;;;;5.93;3.63;;;;;;;;;;2055409;28;20027;-53
2024/02/14 03:23:20;;;;;;;7.80;3.78;;;;;;;;;;2056455;28;20386;-55
2024/02/14 03:24:21;;;;;;;6.45;4.20;;;;;;;;;;2056334;28;20019;-52
2024/02/14 03:25:23;;;;;;;5.00;3.72;;;;;;;;;;2056354;28;20034;-53
2024/02/14 03:26:26;;;;;;;7.55;4.18;;;;;;;;;;2056165;28;20027;-53
2024/02/14 03:27:27;;;;;;;6.45;4.10;;;;;;;;;;2056207;28;20058;-51
2024/02/14 03:28:29;;;;;;;6.63;3.92;;;;;;;;;;2055691;28;20027;-53
2024/02/14 03:29:32;;;;;;;6.15;4.18;;;;;;;;;;2056185;28;20023;-51
2024/02/14 03:30:33;;;;;;;8.18;4.15;;;;;;;;;;2055254;28;20026;-50
2024/02/14 03:31:35;;;;;;;5.75;4.22;;;;;;;;;;2047683;28;20071;-51
2024/02/14 03:32:37;;;;;;;6.68;4.13;;;;;;;;;;2055603;28;20490;-52
2024/02/14 03:33:38;;;;;;;7.80;4.38;;;;;;;;;;2055459;28;20034;-51
2024/02/14 03:34:39;;;;;;;7.05;4.50;;;;;;;;;;2056513;28;20091;-51
2024/02/14 03:35:41;;;;;;;8.40;4.30;;;;;;;;;;2056386;28;20107;-51
2024/02/14 03:36:42;;;;;;;8.75;4.93;;;;;;;;;;2056471;28;20046;-51
2024/02/14 03:37:47;;;;;;;6.47;4.43;;;;;;;;;;2055809;28;20450;-51
2024/02/14 03:38:48;;;;;;;8.20;4.47;;;;;;;;;;2055862;28;20098;-52
2024/02/14 03:39:49;;;;;;;6.22;4.03;;;;;;;;;;2056350;28;20027;-52
2024/02/14 03:40:51;;;;;;;5.80;3.88;;;;;;;;;;2056234;28;20422;-52
2024/02/14 03:41:54;;;;;;;6.97;4.25;;;;;;;;;;2056358;28;20512;-52
2024/02/14 03:42:55;;;;;;;8.55;4.35;;;;;;;;;;2056507;28;20470;-52
2024/02/14 03:44:00;;;;;;;6.82;4.35;;;;;;;;;;2055728;28;20070;-53
2024/02/14 03:45:05;;;;;;;8.50;4.38;;;;;;;;;;2055618;28;20097;-53
2024/02/14 03:46:06;;;;;;;7.38;4.22;;;;;;;;;;2056561;28;20031;-54
2024/02/14 03:47:08;;;;;;;7.88;4.95;;;;;;;;;;2056323;28;20037;-48
2024/02/14 03:48:11;;;;;;;7.32;4.35;;;;;;;;;;2055462;28;20402;-50
2024/02/14 03:49:13;;;;;;;6.85;4.35;;;;;;;;;;2056526;28;20382;-49
2024/02/14 03:50:15;;;;;;;8.20;4.30;;;;;;;;;;2055637;28;20042;-49
2024/02/14 03:51:17;;;;;;;11.15;5.00;;;;;;;;;;2053146;28;20028;-51
2024/02/14 03:52:18;;;;;;;9.27;4.90;;;;;;;;;;2053949;28;20076;-52
2024/02/14 03:53:19;;;;;;;9.45;4.85;;;;;;;;;;2056270;28;20105;-51
2024/02/14 03:54:21;;;;;;;10.27;5.18;;;;;;;;;;2056320;28;20057;-52
2024/02/14 03:55:23;;;;;;;8.02;4.70;;;;;;;;;;2056209;28;20046;-49
2024/02/14 03:56:26;;;;;;;8.23;5.05;;;;;;;;;;2056434;28;20041;-50
2024/02/14 03:57:28;;;;;;;12.05;5.00;;;;;;;;;;2055804;28;20030;-48
2024/02/14 03:58:30;;;;;;;8.25;4.38;;;;;;;;;;2056191;28;20026;-49
2024/02/14 03:59:32;;;;;;;7.43;4.55;;;;;;;;;;2056357;28;20111;-50
2024/02/14 04:00:35;;;;;;;9.30;4.75;;;;;;;;;;2056186;28;20019;-50
2024/02/14 04:01:36;;;;;;;8.82;4.53;;;;;;;;;;2056158;28;20015;-49
2024/02/14 04:02:37;;;;;;;6.35;4.40;;;;;;;;;;2056431;28;20105;-51
2024/02/14 04:03:39;;;;;;;7.25;4.72;;;;;;;;;;2056070;28;20022;-49
2024/02/14 04:04:43;;;;;;;7.32;4.50;;;;;;;;;;2055346;28;20027;-51
2024/02/14 04:05:46;;;;;;;7.90;4.90;;;;;;;;;;2047513;29;20035;-49
2024/02/14 04:06:47;;;;;;;7.15;4.43;;;;;;;;;;2052887;28;20494;-55
2024/02/14 04:07:52;;;;;;;12.68;4.97;;;;;;;;;;2055452;28;20077;-54
2024/02/14 04:08:53;;;;;;;9.18;4.47;;;;;;;;;;2054740;28;20031;-53
2024/02/14 04:09:54;;;;;;;6.88;4.28;;;;;;;;;;2055915;28;20023;-52
2024/02/14 04:10:56;;;;;;;9.05;4.50;;;;;;;;;;2056346;28;20031;-52
2024/02/14 04:11:57;;;;;;;11.30;4.75;;;;;;;;;;2056097;28;20054;-55
2024/02/14 04:12:58;;;;;;;7.75;4.55;;;;;;;;;;2055168;28;20027;-53
2024/02/14 04:13:59;;;;;;;9.20;4.90;;;;;;;;;;2056280;28;20114;-52
2024/02/14 04:15:01;;;;;;;8.25;4.70;;;;;;;;;;2054191;28;20026;-53
2024/02/14 04:16:02;;;;;;;7.28;4.80;;;;;;;;;;2051244;28;20027;-52
2024/02/14 04:17:05;;;;;;;8.48;4.90;;;;;;;;;;2057807;28;20022;-52
2024/02/14 04:18:06;;;;;;;8.00;4.95;;;;;;;;;;2057338;28;20031;-54
2024/02/14 04:19:08;;;;;;;7.57;4.80;;;;;;;;;;2057752;28;20035;-55
2024/02/14 04:20:10;;;;;;;6.75;4.07;;;;;;;;;;2057041;28;20038;-49
2024/02/14 04:21:11;;;;;;;8.05;4.68;;;;;;;;;;2056860;28;20098;-49
2024/02/14 04:22:12;;;;;;;11.48;5.28;;;;;;;;;;2054480;28;20446;-49
2024/02/14 04:23:14;;;;;;;7.75;4.95;;;;;;;;;;2050927;28;20038;-50
2024/02/14 04:24:15;;;;;;;7.82;5.00;;;;;;;;;;2056935;28;20178;-50
2024/02/14 04:25:18;;;;;;;9.40;5.45;;;;;;;;;;2057712;28;20015;-49
2024/02/14 04:26:23;;;;;;;9.10;4.75;;;;;;;;;;2057554;28;20443;-49
2024/02/14 04:27:24;;;;;;;8.88;5.22;;;;;;;;;;2057507;28;20097;-50
2024/02/14 04:28:27;;;;;;;13.00;5.18;;;;;;;;;;2057574;28;20037;-51
2024/02/14 04:29:30;;;;;;;8.38;5.00;;;;;;;;;;2057517;28;20037;-52
2024/02/14 04:30:31;;;;;;;7.85;4.93;;;;;;;;;;2057643;28;20047;-52
2024/02/14 04:31:33;;;;;;;9.07;5.28;;;;;;;;;;2057033;28;20078;-51
2024/02/14 04:32:34;;;;;;;8.23;4.63;;;;;;;;;;2056973;28;20035;-51
2024/02/14 04:33:35;;;;;;;8.70;4.65;;;;;;;;;;2057512;28;20090;-50
2024/02/14 04:34:38;;;;;;;6.68;4.32;;;;;;;;;;2057534;28;20125;-49
2024/02/14 04:35:40;;;;;;;9.77;5.05;;;;;;;;;;2056764;28;20110;-53
2024/02/14 04:36:41;;;;;;;10.63;5.10;;;;;;;;;;2057653;28;20022;-52
2024/02/14 04:37:46;;;;;;;6.70;4.60;;;;;;;;;;2057057;28;20139;-52
2024/02/14 04:38:48;;;;;;;10.18;5.28;;;;;;;;;;2048903;29;20023;-52
2024/02/14 04:39:49;;;;;;;8.10;4.80;;;;;;;;;;2041357;28;20008;-52
2024/02/14 04:40:52;;;;;;;7.45;5.68;;;;;;;;;;2055990;28;20025;-51
2024/02/14 04:41:54;;;;;;;8.63;5.63;;;;;;;;;;2056599;28;20011;-51
2024/02/14 04:42:55;;;;;;;9.38;5.05;;;;;;;;;;2057006;28;20029;-52
2024/02/14 04:43:56;;;;;;;10.55;5.57;;;;;;;;;;2057156;28;20117;-52
2024/02/14 04:44:57;;;;;;;9.85;5.43;;;;;;;;;;2056655;28;20073;-51
2024/02/14 04:45:59;;;;;;;10.50;5.35;;;;;;;;;;2048754;29;20027;-52
2024/02/14 04:47:01;;;;;;;9.77;5.25;;;;;;;;;;2055442;28;20102;-52
2024/02/14 04:48:03;;;;;;;9.57;5.28;;;;;;;;;;2057880;28;20114;-52
2024/02/14 04:49:04;;;;;;;9.85;5.47;;;;;;;;;;2058686;28;20038;-52
2024/02/14 04:50:06;;;;;;;9.30;5.75;;;;;;;;;;2058686;28;20018;-52
2024/02/14 04:51:07;;;;;;;8.30;5.22;;;;;;;;;;2059483;28;20039;-52
2024/02/14 04:52:08;;;;;;;9.93;6.13;;;;;;;;;;2056558;28;20044;-52
2024/02/14 04:53:10;;;;;;;9.05;5.47;;;;;;;;;;2057932;28;20434;-51
2024/02/14 04:54:13;;;;;;;9.98;5.97;;;;;;;;;;2050743;28;20029;-52
2024/02/14 04:55:14;;;;;;;8.88;5.65;;;;;;;;;;2051798;28;20038;-52
2024/02/14 04:56:15;;;;;;;10.95;5.15;;;;;;;;;;2057740;28;20023;-52
2024/02/14 04:57:18;;;;;;;9.40;5.40;;;;;;;;;;2057589;28;20030;-53
2024/02/14 04:58:20;;;;;;;10.43;5.22;;;;;;;;;;2055430;28;20034;-52
2024/02/14 04:59:21;;;;;;;8.77;5.30;;;;;;;;;;2053187;28;20652;-51
2024/02/14 05:00:22;;;;;;;8.93;5.30;;;;;;;;;;2043068;28;20012;-49
2024/02/14 05:01:24;;;;;;;9.52;5.72;;;;;;;;;;2062666;28;20043;-49
2024/02/14 05:02:27;;;;;;;11.20;5.43;;;;;;;;;;2055514;28;20034;-49
2024/02/14 05:03:28;;;;;;;11.52;5.50;;;;;;;;;;2057458;28;20476;-50
2024/02/14 05:04:31;;;;;;;9.95;5.47;;;;;;;;;;2060938;28;20101;-50
2024/02/14 05:05:33;;;;;;;8.80;5.38;;;;;;;;;;2060346;28;20085;-49
2024/02/14 05:06:34;;;;;;;9.57;5.85;;;;;;;;;;2060943;28;20022;-51
2024/02/14 05:07:36;;;;;;;9.32;5.32;;;;;;;;;;2056675;28;20023;-51
2024/02/14 05:08:37;;;;;;;9.18;5.47;;;;;;;;;;2056236;28;20034;-51
2024/02/14 05:09:38;;;;;;;10.50;5.75;;;;;;;;;;2056906;28;20021;-51
2024/02/14 05:10:40;;;;;;;7.78;5.28;;;;;;;;;;2057669;28;20022;-51
2024/02/14 05:11:41;;;;;;;8.52;5.90;;;;;;;;;;2057529;28;20015;-50
2024/02/14 05:12:43;;;;;;;8.15;5.60;;;;;;;;;;2056969;28;20041;-51
2024/02/14 05:13:44;;;;;;;8.93;5.68;;;;;;;;;;2056638;28;20086;-51
2024/02/14 05:14:46;;;;;;;11.55;5.75;;;;;;;;;;2057516;28;20045;-51
2024/02/14 05:15:47;;;;;;;12.15;6.25;;;;;;;;;;2057444;28;20117;-51
2024/02/14 05:16:48;;;;;;;11.07;7.40;;;;;;;;;;2057083;28;20497;-51
2024/02/14 05:17:50;;;;;;;12.55;6.80;;;;;;;;;;2057264;28;20099;-50
2024/02/14 05:18:51;;;;;;;13.40;7.47;;;;;;;;;;2057387;28;20490;-50
2024/02/14 05:19:53;;;;;;;12.18;6.15;;;;;;;;;;2064605;28;20051;-53
2024/02/14 05:20:54;;;;;;;13.70;6.57;;;;;;;;;;2064538;28;20041;-51
2024/02/14 05:21:55;;;;;;;9.20;6.72;;;;;;;;;;2057246;28;20552;-53
2024/02/14 05:22:56;;;;;;;12.93;6.57;;;;;;;;;;2057407;28;20033;-53
2024/02/14 05:23:58;;;;;;;10.38;6.75;;;;;;;;;;2056955;28;20015;-53
2024/02/14 05:24:59;;;;;;;11.65;6.88;;;;;;;;;;2060164;28;20117;-53
2024/02/14 05:26:02;;;;;;;12.32;6.68;;;;;;;;;;2057339;28;20031;-54
2024/02/14 05:27:03;;;;;;;9.73;5.55;;;;;;;;;;2056473;28;20338;-52
2024/02/14 05:28:05;;;;;;;11.10;5.65;;;;;;;;;;2057222;28;20075;-51
2024/02/14 05:29:07;;;;;;;10.55;5.55;;;;;;;;;;2057543;28;20101;-54
2024/02/14 05:30:09;;;;;;;11.30;6.20;;;;;;;;;;2058339;28;20023;-53
2024/02/14 05:31:10;;;;;;;12.52;6.70;;;;;;;;;;2057613;28;20058;-52
2024/02/14 05:32:11;;;;;;;9.85;6.25;;;;;;;;;;2059813;28;20023;-52
2024/02/14 05:33:14;;;;;;;11.05;6.20;;;;;;;;;;2063549;28;20493;-50
2024/02/14 05:34:16;;;;;;;10.98;5.50;;;;;;;;;;2053452;28;20608;-53
2024/02/14 05:35:17;;;;;;;9.93;5.60;;;;;;;;;;2051845;28;20023;-52
2024/02/14 05:36:18;;;;;;;11.98;6.25;;;;;;;;;;2057389;28;20015;-54
2024/02/14 05:37:20;;;;;;;11.50;6.10;;;;;;;;;;2056700;28;20026;-54
2024/02/14 05:38:21;;;;;;;10.18;6.57;;;;;;;;;;2057387;28;20023;-53
2024/02/14 05:39:27;;;;;;;13.23;5.53;;;;;;;;;;2056504;28;20478;-51
2024/02/14 05:40:28;;;;;;;10.82;6.20;;;;;;;;;;2056580;28;20106;-51
2024/02/14 05:41:32;;;;;;;10.32;5.90;;;;;;;;;;2056759;28;20026;-51
2024/02/14 05:42:34;;;;;;;9.90;6.65;;;;;;;;;;2057395;28;20022;-52
2024/02/14 05:43:35;;;;;;;12.88;6.55;;;;;;;;;;2058099;28;20026;-49
2024/02/14 05:44:36;;;;;;;12.52;7.07;;;;;;;;;;2063395;28;20583;-50
2024/02/14 05:45:38;;;;;;;8.65;5.95;;;;;;;;;;2060985;28;20045;-50
2024/02/14 05:46:39;;;;;;;9.45;5.28;;;;;;;;;;2059403;28;20026;-52
2024/02/14 05:47:40;;;;;;;9.50;6.43;;;;;;;;;;2058047;28;20042;-51
2024/02/14 05:48:41;;;;;;;9.13;6.28;;;;;;;;;;2055290;28;20098;-51
2024/02/14 05:49:43;;;;;;;11.30;6.03;;;;;;;;;;2057303;28;20038;-50
2024/02/14 05:50:44;;;;;;;10.43;5.85;;;;;;;;;;2057094;28;20019;-52
2024/02/14 05:51:45;;;;;;;9.85;6.07;;;;;;;;;;2057017;28;20021;-51
2024/02/14 05:52:46;;;;;;;9.50;6.32;;;;;;;;;;2056613;28;20493;-50
2024/02/14 05:53:48;;;;;;;11.60;6.28;;;;;;;;;;2056501;28;20018;-52
2024/02/14 05:54:49;;;;;;;9.68;6.15;;;;;;;;;;2057183;28;20038;-52
2024/02/14 05:55:51;;;;;;;11.95;6.85;;;;;;;;;;2057232;28;20023;-54
2024/02/14 05:56:52;;;;;;;10.27;6.25;;;;;;;;;;2057246;28;20051;-53
2024/02/14 05:57:53;;;;;;;9.00;6.38;;;;;;;;;;2057232;28;20018;-53
2024/02/14 05:58:55;;;;;;;9.75;5.75;;;;;;;;;;2057083;28;20023;-54
2024/02/14 05:59:56;;;;;;;10.93;6.60;;;;;;;;;;2057035;28;20022;-53
2024/02/14 06:00:57;;;;;;;8.18;6.28;;;;;;;;;;2057207;28;20023;-53
2024/02/14 06:01:58;;;;;;;9.88;6.10;;;;;;;;;;2056344;28;20105;-52
2024/02/14 06:03:00;;;;;;;10.88;6.53;;;;;;;;;;2056437;28;20469;-52
2024/02/14 06:04:01;;;;;;;10.63;6.30;;;;;;;;;;2056886;28;20031;-53
2024/02/14 06:05:02;;;;;;;12.48;6.53;;;;;;;;;;2057322;28;20042;-54
2024/02/14 06:06:03;;;;;;;12.63;6.05;;;;;;;;;;2056206;28;20027;-53
2024/02/14 06:07:06;;;;;;;9.13;5.90;;;;;;;;;;2056710;28;20038;-53
2024/02/14 06:08:07;;;;;;;9.57;6.05;;;;;;;;;;2057220;28;20030;-53
2024/02/14 06:09:11;;;;;;;16.20;6.55;;;;;;;;;;2057091;28;20035;-51